METAR Data
IDs: Format: Raw Decoded Include TAF

Data at: 1950 UTC 18 Apr 2021

LFMO 181930Z AUTO 35016KT CAVOK 12/01 Q1018 NOSIG